Time;durP1;ratioP1;P1;durP2;ratioP2;P2;SDS_P1;SDS_P2;PMS_P1;PMS_P2;Temp;Humidity;BMP_temperature;BMP_pressure;BME280_temperature;BME280_humidity;BME280_pressure;Samples;Min_cycle;Max_cycle;Signal;HPM_P1;HPM_P2
2023/08/28 00:00:57;;;;;;;2.60;1.45;;;14.60;99.90;;;;;;5032702;28;37159;-79
2023/08/28 00:03:23;;;;;;;2.90;1.30;;;14.50;99.90;;;;;;5038455;28;37717;-78
2023/08/28 00:05:49;;;;;;;3.17;1.10;;;14.50;99.90;;;;;;5035400;28;38234;-79
2023/08/28 00:08:15;;;;;;;2.17;0.93;;;14.50;99.90;;;;;;5052975;28;38680;-79
2023/08/28 00:10:41;;;;;;;1.48;0.82;;;14.50;99.90;;;;;;5039352;28;36527;-78
2023/08/28 00:13:07;;;;;;;2.55;0.90;;;14.50;99.90;;;;;;5040272;28;39078;-78
2023/08/28 00:15:33;;;;;;;3.60;0.90;;;14.50;99.90;;;;;;5048955;28;38955;-79
2023/08/28 00:18:00;;;;;;;4.13;0.85;;;14.40;99.90;;;;;;5037154;28;37591;-78
2023/08/28 00:20:26;;;;;;;2.42;0.80;;;14.50;99.90;;;;;;5035177;28;38456;-79
2023/08/28 00:22:52;;;;;;;2.60;1.00;;;14.50;99.90;;;;;;5033916;28;38848;-79
2023/08/28 00:25:18;;;;;;;4.85;1.00;;;14.50;99.90;;;;;;5034533;28;38109;-79
2023/08/28 00:27:45;;;;;;;2.80;1.02;;;14.50;99.90;;;;;;5036228;28;39399;-79
2023/08/28 00:30:11;;;;;;;2.10;1.30;;;14.50;99.90;;;;;;5036009;28;37710;-79
2023/08/28 00:32:38;;;;;;;2.53;1.30;;;14.50;99.90;;;;;;5021871;28;36105;-79
2023/08/28 00:35:05;;;;;;;3.72;1.30;;;14.50;99.90;;;;;;5031544;28;38530;-79
2023/08/28 00:37:31;;;;;;;2.00;0.82;;;14.50;99.90;;;;;;5050134;28;36686;-78
2023/08/28 00:39:57;;;;;;;2.05;0.88;;;14.40;99.90;;;;;;5037162;28;36776;-78
2023/08/28 00:42:24;;;;;;;4.90;1.27;;;14.40;99.90;;;;;;5036358;28;37541;-78
2023/08/28 00:44:50;;;;;;;0.85;0.80;;;14.40;99.90;;;;;;5022543;28;38403;-78
2023/08/28 00:47:16;;;;;;;3.00;1.10;;;14.40;99.90;;;;;;5033618;28;36750;-78
2023/08/28 00:49:43;;;;;;;2.10;1.00;;;14.30;99.90;;;;;;5035065;28;36823;-79
2023/08/28 00:52:10;;;;;;;2.72;0.90;;;14.30;99.90;;;;;;5039566;28;38257;-78
2023/08/28 00:54:39;;;;;;;0.65;0.65;;;14.30;99.90;;;;;;5045130;28;41141;-79
2023/08/28 00:57:07;;;;;;;3.63;1.30;;;14.30;99.90;;;;;;5044045;28;38416;-77
2023/08/28 00:59:33;;;;;;;2.00;1.10;;;14.30;99.90;;;;;;5042570;28;37062;-78
2023/08/28 01:01:59;;;;;;;0.68;0.68;;;14.20;99.90;;;;;;5505037;22;39494;-72
2023/08/28 01:04:26;;;;;;;2.17;1.10;;;14.30;99.90;;;;;;5033106;28;35708;-72
2023/08/28 01:07:13;;;;;;;1.88;1.30;;;14.30;99.90;;;;;;5045195;28;36648;-72
2023/08/28 01:10:01;;;;;;;1.42;0.98;;;14.30;99.90;;;;;;5043306;28;47137;-72
2023/08/28 01:12:34;;;;;;;1.15;0.93;;;14.20;99.90;;;;;;5041901;28;38498;-72
2023/08/28 01:15:13;;;;;;;1.00;1.00;;;14.20;99.90;;;;;;5029014;28;37587;-74
2023/08/28 01:17:44;;;;;;;2.72;1.27;;;14.20;99.90;;;;;;5046384;28;48416;-73
2023/08/28 01:20:12;;;;;;;2.80;1.10;;;14.20;99.90;;;;;;5044351;28;37042;-72
2023/08/28 01:22:57;;;;;;;2.05;1.10;;;14.10;99.90;;;;;;5045464;28;37667;-72
2023/08/28 01:25:25;;;;;;;2.58;0.93;;;14.10;99.90;;;;;;5038988;28;37294;-72
2023/08/28 01:27:52;;;;;;;1.00;0.90;;;14.10;99.90;;;;;;5040535;28;37241;-72
2023/08/28 01:30:18;;;;;;;1.13;1.00;;;14.10;99.90;;;;;;5041202;28;36076;-72
2023/08/28 01:32:45;;;;;;;1.25;1.00;;;14.10;99.90;;;;;;5040462;28;36809;-73
2023/08/28 01:35:15;;;;;;;3.75;0.80;;;14.00;99.90;;;;;;5038473;28;40541;-72
2023/08/28 01:38:24;;;;;;;2.38;1.10;;;14.00;99.90;;;;;;5056288;28;37628;-73
2023/08/28 01:40:58;;;;;;;1.88;1.00;;;13.90;99.90;;;;;;5041375;28;48727;-74
2023/08/28 01:43:43;;;;;;;2.20;1.05;;;13.90;99.90;;;;;;5043046;28;39820;-72
2023/08/28 01:46:11;;;;;;;4.38;1.20;;;13.90;99.90;;;;;;5038308;28;37105;-75
2023/08/28 01:48:50;;;;;;;1.17;0.82;;;13.90;99.90;;;;;;5039216;28;38064;-74
2023/08/28 01:51:17;;;;;;;1.27;1.05;;;13.90;99.90;;;;;;5038940;28;36427;-73
2023/08/28 01:53:43;;;;;;;2.97;1.10;;;14.00;99.90;;;;;;5039966;28;39662;-74
2023/08/28 01:56:09;;;;;;;2.10;1.10;;;13.90;99.90;;;;;;5060588;28;37082;-73
2023/08/28 01:58:47;;;;;;;1.63;1.10;;;14.00;99.90;;;;;;5045171;28;36936;-73
2023/08/28 02:01:13;;;;;;;2.05;1.35;;;13.90;99.90;;;;;;5040135;28;36312;-74
2023/08/28 02:03:39;;;;;;;2.53;1.15;;;13.90;99.90;;;;;;5039526;28;39901;-73
2023/08/28 02:06:06;;;;;;;2.28;1.30;;;13.90;99.90;;;;;;5042195;28;38037;-74
2023/08/28 02:08:33;;;;;;;2.00;1.27;;;13.80;99.90;;;;;;5041722;28;36934;-73
2023/08/28 02:10:59;;;;;;;4.25;1.80;;;13.80;99.90;;;;;;5039182;28;34185;-73
2023/08/28 02:13:25;;;;;;;2.28;1.58;;;13.80;99.90;;;;;;5039600;28;39354;-73
2023/08/28 02:15:52;;;;;;;3.00;1.23;;;13.70;99.90;;;;;;5038678;28;38603;-73
2023/08/28 02:18:18;;;;;;;2.35;1.20;;;13.70;99.90;;;;;;5038730;28;36973;-73
2023/08/28 02:20:45;;;;;;;2.00;1.00;;;13.70;99.90;;;;;;5037345;28;37053;-73
2023/08/28 02:23:11;;;;;;;2.53;1.35;;;13.70;99.90;;;;;;5034657;28;39210;-73
2023/08/28 02:25:42;;;;;;;1.35;1.08;;;13.60;99.90;;;;;;5038453;28;39424;-73
2023/08/28 02:28:09;;;;;;;1.27;0.90;;;13.60;99.90;;;;;;5038060;28;38358;-73
2023/08/28 02:30:35;;;;;;;1.55;1.10;;;13.60;99.90;;;;;;5038301;28;36956;-73
2023/08/28 02:33:01;;;;;;;2.78;1.15;;;13.60;99.90;;;;;;5038033;28;37470;-73
2023/08/28 02:35:27;;;;;;;2.72;0.95;;;13.60;99.90;;;;;;5041767;28;47303;-72
2023/08/28 02:37:53;;;;;;;2.83;1.25;;;13.60;99.90;;;;;;5038199;28;36622;-73
2023/08/28 02:40:19;;;;;;;1.90;1.27;;;13.60;99.90;;;;;;5037384;28;37750;-73
2023/08/28 02:42:45;;;;;;;1.60;0.93;;;13.60;99.90;;;;;;5040180;28;38518;-73
2023/08/28 02:45:11;;;;;;;1.98;1.00;;;13.60;99.90;;;;;;5036831;28;38757;-74
2023/08/28 02:47:37;;;;;;;0.88;0.82;;;13.60;99.90;;;;;;5034378;28;37220;-72
2023/08/28 02:50:04;;;;;;;4.00;0.88;;;13.60;99.90;;;;;;5036328;28;36760;-73
2023/08/28 02:52:30;;;;;;;2.05;1.08;;;13.60;99.90;;;;;;5036014;28;46990;-73
2023/08/28 02:54:56;;;;;;;1.08;0.95;;;13.60;99.90;;;;;;5043847;28;38478;-73
2023/08/28 02:57:22;;;;;;;1.45;1.00;;;13.60;99.90;;;;;;5042127;28;38696;-74
2023/08/28 02:59:48;;;;;;;1.80;1.10;;;13.70;99.90;;;;;;5044358;28;38539;-73
2023/08/28 03:02:14;;;;;;;3.55;1.10;;;13.70;99.90;;;;;;5039472;28;38714;-73
2023/08/28 03:04:44;;;;;;;1.45;1.00;;;13.70;99.90;;;;;;5029585;28;38305;-72
2023/08/28 03:07:10;;;;;;;2.40;1.33;;;13.70;99.90;;;;;;5032131;28;37570;-73
2023/08/28 03:09:36;;;;;;;1.60;1.13;;;13.70;99.90;;;;;;5038328;28;36382;-73
2023/08/28 03:12:02;;;;;;;2.55;1.00;;;13.80;99.90;;;;;;5043421;28;37636;-74
2023/08/28 03:14:28;;;;;;;4.53;1.35;;;13.80;99.90;;;;;;5045823;28;38080;-73
2023/08/28 03:16:54;;;;;;;5.35;1.35;;;13.80;99.90;;;;;;5043444;28;38607;-73
2023/08/28 03:19:21;;;;;;;1.30;1.20;;;13.70;99.90;;;;;;5040354;28;35937;-73
2023/08/28 03:21:47;;;;;;;3.08;1.20;;;13.80;99.90;;;;;;5042111;28;38743;-73
2023/08/28 03:24:13;;;;;;;3.67;1.25;;;13.80;99.90;;;;;;5035644;28;38562;-73
2023/08/28 03:26:39;;;;;;;1.17;1.00;;;13.90;99.90;;;;;;5033758;28;37830;-73
2023/08/28 03:29:05;;;;;;;1.27;1.17;;;13.90;99.90;;;;;;5034648;28;36730;-73
2023/08/28 03:31:31;;;;;;;1.42;1.05;;;13.90;99.90;;;;;;5035343;28;40257;-73
2023/08/28 03:33:59;;;;;;;4.15;1.27;;;13.90;99.90;;;;;;5033593;28;39361;-73
2023/08/28 03:36:28;;;;;;;4.00;1.60;;;14.00;99.90;;;;;;5036864;28;38925;-73
2023/08/28 03:38:54;;;;;;;1.65;1.00;;;14.10;99.90;;;;;;5034288;28;37866;-73
2023/08/28 03:41:20;;;;;;;1.10;1.00;;;14.20;99.90;;;;;;5037330;28;38660;-73
2023/08/28 03:43:46;;;;;;;3.20;1.25;;;14.20;99.90;;;;;;5035666;28;38884;-73
2023/08/28 03:46:12;;;;;;;2.47;1.40;;;14.20;99.90;;;;;;5035539;28;36971;-73
2023/08/28 03:48:38;;;;;;;2.75;1.00;;;14.30;99.90;;;;;;5036251;28;36569;-73
2023/08/28 03:51:04;;;;;;;1.95;1.30;;;14.30;99.90;;;;;;5034838;28;37754;-71
2023/08/28 03:53:30;;;;;;;2.25;1.45;;;14.40;99.90;;;;;;5047985;28;37425;-72
2023/08/28 03:55:56;;;;;;;1.50;1.10;;;14.40;99.90;;;;;;5039592;28;37657;-73
2023/08/28 03:58:22;;;;;;;3.08;1.40;;;14.40;99.90;;;;;;5039296;28;37049;-73
2023/08/28 04:00:53;;;;;;;4.32;1.40;;;14.50;99.90;;;;;;5039844;28;39704;-73
2023/08/28 04:03:20;;;;;;;1.25;1.15;;;14.50;99.90;;;;;;5044136;28;38064;-73
2023/08/28 04:05:48;;;;;;;3.78;1.50;;;14.60;99.90;;;;;;5039224;28;39079;-73
2023/08/28 04:08:15;;;;;;;2.83;1.48;;;14.60;99.90;;;;;;5040521;28;37016;-73
2023/08/28 04:10:42;;;;;;;2.35;1.20;;;14.60;99.90;;;;;;5038954;28;37868;-74
2023/08/28 04:13:08;;;;;;;2.13;1.00;;;14.60;99.90;;;;;;5036752;28;38312;-73
2023/08/28 04:15:34;;;;;;;1.83;1.20;;;14.60;99.90;;;;;;5038090;28;38850;-73
2023/08/28 04:18:00;;;;;;;3.70;1.52;;;14.60;99.90;;;;;;5036984;28;36156;-73
2023/08/28 04:20:26;;;;;;;2.78;1.45;;;14.70;99.90;;;;;;5041266;28;38143;-73
2023/08/28 04:22:52;;;;;;;1.38;1.27;;;14.70;99.90;;;;;;5040573;28;39700;-73
2023/08/28 04:25:19;;;;;;;1.65;1.20;;;14.70;99.90;;;;;;5036800;28;37902;-72
2023/08/28 04:27:45;;;;;;;1.90;1.10;;;14.70;99.90;;;;;;5034045;28;35916;-73
2023/08/28 04:30:11;;;;;;;2.45;1.30;;;14.80;99.90;;;;;;5034313;28;37514;-72
2023/08/28 04:32:38;;;;;;;5.55;1.20;;;14.80;99.90;;;;;;5035777;28;38770;-73
2023/08/28 04:35:05;;;;;;;1.90;1.30;;;14.80;99.90;;;;;;5039736;28;37117;-74
2023/08/28 04:37:32;;;;;;;2.40;1.50;;;14.80;99.90;;;;;;5037858;28;37119;-72
2023/08/28 04:39:58;;;;;;;4.22;1.58;;;14.80;99.90;;;;;;5037846;28;37694;-73
2023/08/28 04:42:24;;;;;;;1.30;1.13;;;14.80;99.90;;;;;;5037931;28;38117;-73
2023/08/28 04:44:50;;;;;;;1.95;1.30;;;14.90;99.90;;;;;;5040922;28;38566;-73
2023/08/28 04:47:16;;;;;;;4.15;1.58;;;14.90;99.90;;;;;;5043133;28;38353;-73
2023/08/28 04:49:42;;;;;;;1.70;1.55;;;15.00;99.90;;;;;;5043445;28;38702;-75
2023/08/28 04:52:08;;;;;;;3.40;1.40;;;14.90;99.90;;;;;;5039373;28;38828;-75
2023/08/28 04:54:36;;;;;;;2.10;1.60;;;15.00;99.90;;;;;;5037515;28;38063;-78
2023/08/28 04:57:03;;;;;;;4.13;1.67;;;15.00;99.90;;;;;;5039184;28;37557;-73
2023/08/28 04:59:29;;;;;;;4.15;1.50;;;15.10;99.90;;;;;;5042084;28;47234;-72
2023/08/28 05:01:55;;;;;;;3.03;1.73;;;15.10;99.90;;;;;;5039439;28;37434;-72
2023/08/28 05:04:21;;;;;;;2.50;1.55;;;15.20;99.90;;;;;;5041431;28;37438;-72
2023/08/28 05:06:48;;;;;;;6.55;1.83;;;15.20;99.90;;;;;;5034496;28;37126;-72
2023/08/28 05:09:14;;;;;;;3.25;1.85;;;15.20;99.90;;;;;;5034864;28;38678;-73
2023/08/28 05:11:44;;;;;;;3.67;1.88;;;15.20;99.90;;;;;;5037472;28;39088;-74
2023/08/28 05:14:12;;;;;;;4.47;1.90;;;15.30;99.90;;;;;;5021492;28;38532;-74
2023/08/28 05:16:39;;;;;;;3.13;1.60;;;15.30;99.90;;;;;;5037047;28;37101;-74
2023/08/28 05:19:05;;;;;;;1.80;1.70;;;15.30;99.90;;;;;;5039087;28;38526;-74
2023/08/28 05:21:31;;;;;;;2.90;1.77;;;15.30;99.90;;;;;;5040017;28;38850;-74
2023/08/28 05:23:57;;;;;;;2.20;1.45;;;15.30;99.90;;;;;;5035531;28;38320;-74
2023/08/28 05:26:23;;;;;;;4.07;2.03;;;15.30;99.90;;;;;;5036735;28;37230;-74
2023/08/28 05:28:49;;;;;;;6.75;2.30;;;15.30;99.90;;;;;;5042795;28;38408;-74
2023/08/28 05:31:16;;;;;;;3.85;2.00;;;15.30;99.90;;;;;;5034085;28;37158;-75
2023/08/28 05:33:42;;;;;;;3.67;2.17;;;15.40;99.90;;;;;;5034852;28;37716;-74
2023/08/28 05:36:08;;;;;;;5.45;2.45;;;15.40;99.90;;;;;;5034689;28;37614;-74
2023/08/28 05:38:35;;;;;;;3.65;2.50;;;15.40;99.90;;;;;;5031935;28;37713;-74
2023/08/28 05:41:01;;;;;;;3.13;2.10;;;15.40;99.90;;;;;;5039465;28;37064;-75
2023/08/28 05:43:27;;;;;;;3.08;2.05;;;15.50;99.90;;;;;;5035496;28;47055;-74
2023/08/28 05:45:53;;;;;;;3.85;2.00;;;15.50;99.90;;;;;;5037027;28;40053;-74
2023/08/28 05:48:19;;;;;;;5.95;2.45;;;15.60;99.90;;;;;;5036547;28;38767;-74
2023/08/28 05:50:48;;;;;;;5.63;2.20;;;15.60;99.90;;;;;;5042047;28;37271;-75
2023/08/28 05:53:14;;;;;;;2.88;2.05;;;15.70;99.90;;;;;;5029513;28;38819;-76
2023/08/28 05:55:40;;;;;;;4.22;2.15;;;15.70;99.90;;;;;;5035268;28;36359;-75
2023/08/28 05:58:07;;;;;;;6.03;1.70;;;15.80;99.90;;;;;;5039659;28;37719;-74
2023/08/28 06:00:33;;;;;;;2.63;2.08;;;15.80;99.90;;;;;;5056346;28;37154;-74
2023/08/28 06:02:59;;;;;;;3.22;1.92;;;15.90;99.90;;;;;;5040718;28;37778;-73
2023/08/28 06:05:25;;;;;;;3.38;2.05;;;15.90;99.90;;;;;;5039496;28;36795;-73
2023/08/28 06:07:51;;;;;;;2.55;2.08;;;16.00;99.90;;;;;;5045804;28;38922;-73
2023/08/28 06:10:19;;;;;;;2.80;1.90;;;16.00;99.90;;;;;;5034945;28;38729;-73
2023/08/28 06:12:48;;;;;;;5.50;2.60;;;16.00;99.90;;;;;;5036698;28;38957;-73
2023/08/28 06:15:18;;;;;;;4.85;2.10;;;16.10;99.90;;;;;;5037540;28;36823;-73
2023/08/28 06:17:45;;;;;;;3.85;1.73;;;16.10;99.90;;;;;;5033073;28;39988;-73
2023/08/28 06:20:12;;;;;;;3.05;2.28;;;16.10;99.90;;;;;;5039603;28;39030;-74
2023/08/28 06:22:41;;;;;;;5.15;2.88;;;16.20;99.90;;;;;;5039755;28;39716;-74
2023/08/28 06:25:08;;;;;;;3.90;3.10;;;16.20;99.90;;;;;;5036177;28;36137;-73
2023/08/28 06:27:34;;;;;;;6.85;3.50;;;16.20;99.90;;;;;;5035104;28;39534;-73
2023/08/28 06:30:04;;;;;;;5.85;3.40;;;16.20;99.90;;;;;;5037278;28;35967;-74
2023/08/28 06:32:30;;;;;;;3.33;2.47;;;16.20;99.90;;;;;;5032413;28;36948;-73
2023/08/28 06:34:56;;;;;;;6.72;2.72;;;16.20;99.90;;;;;;5029840;28;37200;-73
2023/08/28 06:37:24;;;;;;;4.57;2.53;;;16.20;99.90;;;;;;5035933;28;38614;-74
2023/08/28 06:39:51;;;;;;;4.30;2.40;;;16.10;99.90;;;;;;5039755;28;38718;-73
2023/08/28 06:42:17;;;;;;;4.70;2.65;;;16.20;99.90;;;;;;5035719;28;38392;-73
2023/08/28 06:44:44;;;;;;;3.60;2.10;;;16.20;99.90;;;;;;5037886;28;37245;-74
2023/08/28 06:47:10;;;;;;;3.83;1.75;;;16.20;99.90;;;;;;5038883;28;37594;-73
2023/08/28 06:49:36;;;;;;;3.17;1.88;;;16.30;99.90;;;;;;5054149;28;37278;-74
2023/08/28 06:52:04;;;;;;;3.05;1.83;;;16.30;99.90;;;;;;5035747;28;38254;-75
2023/08/28 06:54:32;;;;;;;3.15;1.65;;;16.30;99.90;;;;;;5040818;28;37165;-74
2023/08/28 06:56:58;;;;;;;1.95;1.50;;;16.30;99.90;;;;;;5045966;28;38678;-74
2023/08/28 06:59:24;;;;;;;8.93;2.38;;;16.30;99.90;;;;;;5040298;28;38253;-74
2023/08/28 07:01:51;;;;;;;3.22;1.70;;;16.30;99.90;;;;;;5044699;28;38834;-74
2023/08/28 07:04:17;;;;;;;3.25;1.55;;;16.50;99.90;;;;;;5031491;28;35983;-75
2023/08/28 07:06:43;;;;;;;4.05;1.40;;;16.60;99.90;;;;;;5043956;28;38590;-74
2023/08/28 07:09:09;;;;;;;2.88;1.30;;;16.60;99.90;;;;;;5044806;28;39354;-74
2023/08/28 07:11:36;;;;;;;2.53;1.30;;;16.70;99.90;;;;;;5041295;28;37560;-74
2023/08/28 07:14:03;;;;;;;1.95;1.20;;;16.80;99.90;;;;;;5034800;28;37684;-73
2023/08/28 07:16:29;;;;;;;1.30;0.90;;;16.80;99.90;;;;;;5036854;28;39624;-74
2023/08/28 07:18:55;;;;;;;1.13;0.73;;;16.80;99.90;;;;;;5034453;28;38284;-73
2023/08/28 07:21:21;;;;;;;1.92;1.08;;;16.80;99.90;;;;;;5035993;28;37748;-74
2023/08/28 07:23:50;;;;;;;2.22;0.88;;;16.70;99.90;;;;;;5047314;28;36398;-72
2023/08/28 07:26:16;;;;;;;1.75;1.02;;;16.80;99.90;;;;;;5044320;28;38752;-73
2023/08/28 07:28:42;;;;;;;1.83;1.02;;;16.80;99.90;;;;;;5045073;28;39213;-73
2023/08/28 07:31:10;;;;;;;1.40;1.20;;;16.90;99.90;;;;;;5024940;28;39222;-73
2023/08/28 07:33:37;;;;;;;2.28;1.17;;;16.90;99.90;;;;;;5016912;28;36053;-73
2023/08/28 07:36:03;;;;;;;1.73;1.00;;;16.90;99.90;;;;;;5036871;28;40794;-74
2023/08/28 07:38:29;;;;;;;1.40;0.90;;;17.00;99.90;;;;;;5043545;28;38596;-74
2023/08/28 07:40:55;;;;;;;1.55;1.00;;;16.90;99.90;;;;;;5043475;28;36859;-73
2023/08/28 07:43:22;;;;;;;1.58;1.10;;;16.90;99.90;;;;;;5034499;28;36929;-74
2023/08/28 07:45:48;;;;;;;2.00;0.90;;;17.00;99.90;;;;;;5040825;28;38860;-73
2023/08/28 07:48:14;;;;;;;1.73;0.80;;;17.10;99.90;;;;;;5038283;28;38204;-73
2023/08/28 07:50:40;;;;;;;0.88;0.80;;;17.10;99.90;;;;;;5046812;28;38357;-74
2023/08/28 07:53:07;;;;;;;0.98;0.73;;;17.10;99.90;;;;;;5044860;28;37413;-74
2023/08/28 07:55:33;;;;;;;1.73;0.65;;;17.20;99.90;;;;;;5043244;28;36449;-74
2023/08/28 07:57:59;;;;;;;0.82;0.50;;;17.20;99.90;;;;;;5043144;28;38466;-73
2023/08/28 08:00:25;;;;;;;1.38;0.60;;;17.20;99.90;;;;;;5041704;28;37733;-74
2023/08/28 08:02:51;;;;;;;1.45;0.60;;;17.20;99.90;;;;;;5046390;28;37290;-74
2023/08/28 08:05:18;;;;;;;0.55;0.50;;;17.40;99.90;;;;;;5041211;28;39586;-73
2023/08/28 08:07:45;;;;;;;0.60;0.50;;;17.50;99.90;;;;;;5042682;28;38448;-73
2023/08/28 08:10:13;;;;;;;0.77;0.50;;;17.70;99.90;;;;;;5034127;28;37904;-73
2023/08/28 08:12:39;;;;;;;2.50;0.60;;;18.10;99.90;;;;;;5047028;28;38121;-74
2023/08/28 08:15:06;;;;;;;1.50;0.50;;;18.20;99.90;;;;;;5044526;28;40650;-75
2023/08/28 08:17:34;;;;;;;1.05;0.50;;;18.20;99.90;;;;;;5041732;28;38573;-76
2023/08/28 08:20:00;;;;;;;0.50;0.20;;;18.30;99.90;;;;;;5040646;28;38154;-75
2023/08/28 08:22:26;;;;;;;1.20;0.30;;;18.40;99.90;;;;;;5039393;28;37334;-74
2023/08/28 08:24:52;;;;;;;1.42;0.40;;;18.70;99.90;;;;;;5041895;28;39402;-75
2023/08/28 08:27:18;;;;;;;0.93;0.45;;;18.80;99.90;;;;;;5028431;28;39429;-74
2023/08/28 08:29:45;;;;;;;0.30;0.30;;;19.10;99.90;;;;;;5028902;28;38261;-75
2023/08/28 08:32:11;;;;;;;1.02;0.47;;;19.30;99.90;;;;;;5038593;28;36434;-75
2023/08/28 08:34:37;;;;;;;1.15;0.52;;;19.40;99.90;;;;;;5039353;28;39399;-74
2023/08/28 08:37:03;;;;;;;1.65;0.40;;;19.40;99.90;;;;;;5048873;28;38398;-74
2023/08/28 08:39:30;;;;;;;0.73;0.57;;;19.70;99.90;;;;;;5031761;28;37688;-75
2023/08/28 08:41:56;;;;;;;1.25;0.82;;;20.00;99.90;;;;;;5034747;28;36046;-74
2023/08/28 08:44:22;;;;;;;0.88;0.65;;;20.00;99.90;;;;;;5032780;28;38806;-74
2023/08/28 08:46:49;;;;;;;0.80;0.47;;;20.10;99.90;;;;;;5035528;28;38516;-74
2023/08/28 08:49:20;;;;;;;1.77;0.70;;;20.40;99.90;;;;;;5038751;28;38382;-75
2023/08/28 08:51:51;;;;;;;3.53;1.10;;;20.60;99.90;;;;;;5038904;28;38002;-75
2023/08/28 08:54:25;;;;;;;2.80;1.00;;;20.70;99.90;;;;;;5034177;28;39483;-75
2023/08/28 08:57:00;;;;;;;2.88;0.70;;;20.70;99.90;;;;;;5038201;28;38380;-75
2023/08/28 08:59:29;;;;;;;1.38;0.60;;;20.70;99.90;;;;;;5042779;28;37841;-74
2023/08/28 09:01:55;;;;;;;4.43;1.00;;;20.90;99.90;;;;;;5042126;28;37328;-74
2023/08/28 09:04:22;;;;;;;1.38;0.90;;;21.00;99.90;;;;;;5032979;28;38625;-75
2023/08/28 09:06:49;;;;;;;1.55;0.73;;;21.10;99.90;;;;;;5040120;28;38497;-74
2023/08/28 09:09:16;;;;;;;3.97;0.50;;;21.00;96.40;;;;;;5039207;28;37306;-74
2023/08/28 09:11:45;;;;;;;0.47;0.47;;;21.10;99.90;;;;;;5040115;28;38007;-73
2023/08/28 09:14:12;;;;;;;1.67;0.52;;;21.00;91.20;;;;;;5034400;28;37627;-73
2023/08/28 09:16:38;;;;;;;1.13;0.45;;;20.90;99.40;;;;;;5038372;28;36617;-72
2023/08/28 09:19:04;;;;;;;1.15;0.80;;;20.90;99.90;;;;;;5043497;28;37920;-73
2023/08/28 09:21:49;;;;;;;2.70;0.60;;;20.90;99.90;;;;;;5042258;28;37054;-74
2023/08/28 09:24:21;;;;;;;0.77;0.40;;;21.10;98.10;;;;;;5040901;28;39861;-73
2023/08/28 09:26:52;;;;;;;3.15;0.80;;;21.50;99.90;;;;;;5039345;28;38339;-75
2023/08/28 09:29:22;;;;;;;2.17;0.68;;;21.80;98.20;;;;;;5057009;28;36657;-74
2023/08/28 09:31:48;;;;;;;1.02;0.50;;;22.00;75.70;;;;;;5046735;28;35954;-74
2023/08/28 09:34:15;;;;;;;1.63;0.50;;;22.20;59.40;;;;;;5044050;28;37651;-76
2023/08/28 09:36:41;;;;;;;2.17;0.50;;;21.90;48.50;;;;;;5042690;28;37487;-74
2023/08/28 09:39:07;;;;;;;1.20;0.50;;;21.50;75.40;;;;;;5048149;28;38642;-74
2023/08/28 09:41:43;;;;;;;1.63;0.50;;;21.10;92.80;;;;;;5047824;28;36285;-73
2023/08/28 09:44:11;;;;;;;2.58;0.50;;;20.70;99.30;;;;;;5031948;28;38297;-74
2023/08/28 09:46:37;;;;;;;1.40;0.47;;;20.40;99.90;;;;;;5040518;28;37880;-73
2023/08/28 09:49:05;;;;;;;2.50;0.90;;;20.10;99.90;;;;;;5041649;28;37814;-74
2023/08/28 09:51:44;;;;;;;1.48;0.63;;;19.90;99.90;;;;;;5041255;28;37093;-73
2023/08/28 09:54:11;;;;;;;1.27;0.57;;;19.70;99.90;;;;;;5038526;28;37592;-73
2023/08/28 09:56:39;;;;;;;2.33;0.68;;;19.50;99.90;;;;;;5037707;28;39404;-76
2023/08/28 09:59:09;;;;;;;2.55;0.63;;;19.40;99.90;;;;;;5039391;28;37763;-73
2023/08/28 10:01:36;;;;;;;1.65;0.77;;;19.30;99.90;;;;;;5042346;28;35926;-73
2023/08/28 10:04:07;;;;;;;2.28;0.52;;;19.30;99.90;;;;;;5037470;28;38854;-74
2023/08/28 10:06:49;;;;;;;0.93;0.40;;;19.30;99.90;;;;;;5042588;28;38821;-73
2023/08/28 10:09:19;;;;;;;2.03;0.50;;;19.30;99.90;;;;;;5038768;28;37625;-74
2023/08/28 10:11:46;;;;;;;1.85;0.70;;;19.30;99.90;;;;;;5040346;28;37370;-72
2023/08/28 10:14:14;;;;;;;1.48;0.82;;;19.40;99.90;;;;;;5044833;28;38569;-72
2023/08/28 10:17:08;;;;;;;0.90;0.50;;;19.60;99.90;;;;;;5045795;28;37899;-75
2023/08/28 10:19:54;;;;;;;1.42;0.73;;;19.60;99.90;;;;;;5044550;28;48842;-74
2023/08/28 10:22:22;;;;;;;1.25;0.50;;;19.60;99.90;;;;;;5042259;28;36265;-75
2023/08/28 10:24:49;;;;;;;0.90;0.57;;;19.70;99.90;;;;;;5047869;28;39599;-75
2023/08/28 10:27:16;;;;;;;1.85;0.50;;;20.10;99.90;;;;;;5044373;28;38099;-74
2023/08/28 10:29:46;;;;;;;2.25;0.68;;;20.80;93.30;;;;;;5046876;28;38170;-74
2023/08/28 10:32:13;;;;;;;0.98;0.40;;;21.20;82.60;;;;;;5044577;28;36472;-74
2023/08/28 10:34:42;;;;;;;1.80;0.30;;;21.40;43.00;;;;;;5050215;28;39356;-73
2023/08/28 10:37:09;;;;;;;1.00;0.60;;;21.40;57.20;;;;;;5045578;28;37981;-74
2023/08/28 10:39:43;;;;;;;1.08;0.40;;;21.00;44.00;;;;;;5045787;28;36965;-75
2023/08/28 10:42:11;;;;;;;1.45;0.35;;;20.80;73.20;;;;;;5045535;28;36683;-75
2023/08/28 10:44:38;;;;;;;1.98;0.60;;;21.20;95.10;;;;;;5047138;28;37697;-75
2023/08/28 10:47:05;;;;;;;1.85;0.60;;;21.70;79.70;;;;;;5041580;28;37092;-74
2023/08/28 10:49:33;;;;;;;1.00;0.47;;;21.90;60.60;;;;;;5047257;28;36786;-72
2023/08/28 10:52:09;;;;;;;1.58;0.57;;;22.40;68.30;;;;;;5044044;28;36887;-73
2023/08/28 10:54:43;;;;;;;2.53;0.80;;;22.60;63.90;;;;;;5040912;28;48268;-74
2023/08/28 10:57:27;;;;;;;1.42;0.60;;;22.10;72.50;;;;;;5039808;28;38552;-73
2023/08/28 10:59:54;;;;;;;0.93;0.75;;;21.70;92.20;;;;;;5045006;28;37801;-73
2023/08/28 11:02:21;;;;;;;2.08;0.68;;;21.20;97.50;;;;;;5047423;28;37121;-73
2023/08/28 11:04:47;;;;;;;4.97;0.70;;;20.90;90.30;;;;;;5046487;28;37597;-74
2023/08/28 11:07:25;;;;;;;2.25;0.70;;;20.60;92.80;;;;;;5044174;28;38717;-74
2023/08/28 11:10:16;;;;;;;1.67;0.60;;;20.40;87.00;;;;;;5048022;28;38693;-73
2023/08/28 11:12:53;;;;;;;1.90;0.70;;;20.20;96.60;;;;;;5039011;28;47188;-75
2023/08/28 11:15:40;;;;;;;1.48;0.55;;;20.10;99.90;;;;;;5058507;28;37678;-74
2023/08/28 11:18:18;;;;;;;1.17;0.70;;;20.20;99.90;;;;;;5045170;28;39325;-75
2023/08/28 11:20:52;;;;;;;1.70;0.45;;;20.10;99.90;;;;;;5041828;28;38624;-75
2023/08/28 11:23:27;;;;;;;1.20;0.90;;;20.00;99.90;;;;;;5039527;28;37359;-74
2023/08/28 11:25:53;;;;;;;1.85;0.77;;;20.00;99.90;;;;;;5036404;28;38947;-75
2023/08/28 11:28:29;;;;;;;2.50;0.77;;;19.90;99.90;;;;;;5037885;28;37684;-75
2023/08/28 11:31:05;;;;;;;5.88;0.90;;;20.00;99.90;;;;;;5045556;28;38112;-75
2023/08/28 11:33:39;;;;;;;4.10;0.90;;;20.00;99.90;;;;;;5036174;28;48360;-74
2023/08/28 11:36:10;;;;;;;2.67;0.80;;;20.10;99.90;;;;;;5043985;28;40040;-75
2023/08/28 11:38:43;;;;;;;2.38;0.70;;;20.10;95.80;;;;;;5042828;28;38636;-73
2023/08/28 11:41:10;;;;;;;1.50;0.50;;;20.00;92.00;;;;;;5039098;28;38080;-74
2023/08/28 11:43:38;;;;;;;4.13;0.80;;;19.80;99.90;;;;;;5044657;28;37066;-75
2023/08/28 11:46:04;;;;;;;0.98;0.60;;;19.90;99.90;;;;;;5042385;28;38992;-74
2023/08/28 11:48:39;;;;;;;2.47;0.50;;;19.70;99.90;;;;;;5041239;28;38235;-75
2023/08/28 11:51:08;;;;;;;2.03;0.60;;;19.60;99.90;;;;;;5040566;28;38703;-74
2023/08/28 11:53:36;;;;;;;0.85;0.57;;;19.70;99.90;;;;;;5046276;28;35002;-74
2023/08/28 11:56:03;;;;;;;0.95;0.60;;;19.70;99.90;;;;;;5044691;28;38552;-74
2023/08/28 11:58:31;;;;;;;1.40;0.45;;;19.60;99.90;;;;;;5039951;28;37489;-74
2023/08/28 12:00:58;;;;;;;0.57;0.50;;;19.60;99.90;;;;;;5040488;28;38411;-75
2023/08/28 12:03:25;;;;;;;1.00;0.60;;;19.40;97.10;;;;;;5044524;28;37891;-74
2023/08/28 12:06:06;;;;;;;2.45;0.73;;;19.40;99.50;;;;;;5041750;28;37661;-74
2023/08/28 12:08:50;;;;;;;2.53;0.68;;;19.50;99.90;;;;;;5040371;28;47086;-75
2023/08/28 12:11:18;;;;;;;0.85;0.50;;;19.50;99.90;;;;;;5038836;28;20057;-75
2023/08/28 12:13:44;;;;;;;1.95;0.65;;;19.60;97.10;;;;;;5041071;28;36437;-74
2023/08/28 12:16:17;;;;;;;1.75;0.60;;;19.70;99.90;;;;;;5038939;28;38344;-74
2023/08/28 12:18:51;;;;;;;1.38;0.60;;;19.80;99.90;;;;;;5044511;28;38246;-74
2023/08/28 12:21:36;;;;;;;1.48;0.40;;;19.80;93.80;;;;;;5043607;28;37278;-74
2023/08/28 12:24:02;;;;;;;2.20;0.50;;;20.10;99.90;;;;;;5037762;28;38215;-75
2023/08/28 12:26:31;;;;;;;2.63;0.60;;;20.20;94.80;;;;;;5038459;28;38628;-74
2023/08/28 12:28:57;;;;;;;1.88;0.75;;;20.50;93.20;;;;;;5041923;28;37770;-74
2023/08/28 12:31:41;;;;;;;1.42;0.60;;;20.50;93.60;;;;;;5035238;28;37204;-74
2023/08/28 12:34:09;;;;;;;1.80;0.52;;;20.40;97.90;;;;;;5041769;28;36233;-73
2023/08/28 12:36:36;;;;;;;1.42;0.55;;;20.30;99.90;;;;;;5043514;28;40502;-74
2023/08/28 12:39:07;;;;;;;1.25;0.60;;;20.30;91.80;;;;;;5043248;28;38857;-73
2023/08/28 12:41:51;;;;;;;2.20;0.50;;;20.30;76.30;;;;;;5043523;28;36948;-75
2023/08/28 12:44:18;;;;;;;0.80;0.50;;;20.30;92.80;;;;;;5044569;28;36345;-74
2023/08/28 12:46:45;;;;;;;0.80;0.40;;;20.30;96.30;;;;;;5045626;28;39860;-74
2023/08/28 12:49:12;;;;;;;1.65;0.47;;;20.20;83.50;;;;;;5045145;28;39626;-73
2023/08/28 12:51:39;;;;;;;1.45;0.77;;;20.10;89.10;;;;;;5044323;28;37307;-75
2023/08/28 12:54:06;;;;;;;1.42;0.70;;;20.10;94.70;;;;;;5042512;28;37519;-72